Flight Track Log - Related Links

Times and Time Zones

All times are in EDT time to prevent confusion due to time zone crossing. See the UAL5832 flight status page for this flight to view local times or setup timezone preferences in your user account.

Time Position Orientation Groundspeed Altitude Reporting Facility
EDT Latitude Longitude Course Direction KTS MPH feet Rate Location/Type
23:02 41.9333 -87.9000 176° South 171 197 2,000  Level Chicago TRACON
23:03 41.8833 -87.9000 180° South 214 246 4,000 1,846 Climbing Chicago TRACON
23:04 41.8161 -87.8900 174° South 221 254 6,000 2,091 Climbing Chicago Center
23:05 41.7494 -87.8881 179° South 237 273 8,600 2,537 Climbing Chicago Center
23:06 41.6661 -87.8856 179° South 248 285 11,200 2,115 Climbing Chicago Center
23:07 41.5950 -87.8839 179° South 253 291 12,900 1,122 Climbing Chicago Center
23:08 41.5600 -87.8109 176° South  Level Estimated
23:09 41.5136 -87.8808 178° South 282 325 13,500  Level Chicago Center
23:10 41.4225 -87.8789 179° South 317 365 14,300 934 Climbing Chicago Center
23:11 41.3289 -87.8867 184° South 331 381 15,400 1,073 Climbing Chicago Center
23:12 41.2339 -87.8936 183° South 336 387 16,500 1,122 Climbing Chicago Center
23:13 41.1397 -87.8900 178° South 337 388 17,700 1,328 Climbing Chicago Center
23:14 41.0456 -87.8872 179° South 339 390 19,200 1,366 Climbing Chicago Center
23:15 40.9519 -87.8842 179° South 338 389 20,500 1,220 Climbing Chicago Center
23:16 40.8578 -87.8819 179° South 339 390 21,700 1,180 Climbing Chicago Center
23:17 40.7619 -87.8789 179° South 343 395 22,900 1,268 Climbing Chicago Center
23:18 40.6500 -87.8764 179° South 338 389 24,300 1,268 Climbing Chicago Center
23:19 40.5569 -87.8731 178° South 336 387 25,500 1,171 Climbing Chicago Center
23:20 40.4664 -87.8703 179° South 330 380 26,700 1,377 Climbing Chicago Center
23:21 40.3781 -87.8681 179° South 322 371 28,300 1,738 Climbing Chicago Center
23:22 40.3181 -87.8675 180° South 310 357 29,800 944 Climbing Indianapolis Center
23:23 40.2411 -87.8619 177° South 291 335 30,000 590 Climbing Indianapolis Center
23:24 40.1689 -87.8544 175° South 274 315 31,000 1,024 Climbing Indianapolis Center
23:25 40.0964 -87.8372 170° South 268 308 32,100 1,073 Climbing Indianapolis Center
23:26 40.0244 -87.8186 169° South 265 305 33,200 1,230 Climbing Indianapolis Center
23:27 39.9411 -87.8014 171° South 255 293 34,600 878 Climbing Indianapolis Center
23:28 39.8733 -87.7847 169° South 250 288 35,000 195 Climbing Indianapolis Center
23:29 39.7989 -87.7683 170° South 259 298 35,000  Level Indianapolis Center
23:30 39.7172 -87.7494 170° South 279 321 35,000  Level Indianapolis Center
23:31 39.6339 -87.7333 172° South 292 336 35,000  Level Indianapolis Center
23:32 39.5508 -87.7158 171° South 299 344 35,000  Level Indianapolis Center
23:33 39.4683 -87.6983 171° South 299 344 35,000  Level Indianapolis Center
23:34 39.3847 -87.6781 169° South 303 349 35,000  Level Indianapolis Center
23:35 39.3006 -87.6617 171° South 305 351 35,000  Level Indianapolis Center
23:36 39.2161 -87.6444 171° South 304 350 35,000  Level Indianapolis Center
23:37 39.1300 -87.6250 170° South 312 359 35,000  Level Indianapolis Center
23:38 39.0442 -87.6069 171° South 311 358 35,000  Level Indianapolis Center
23:39 38.9411 -87.5844 170° South 313 360 35,000  Level Indianapolis Center
23:40 38.8547 -87.5669 171° South 312 359 35,000  Level Indianapolis Center
23:41 38.7675 -87.5483 171° South 316 364 35,000  Level Indianapolis Center
23:42 38.6808 -87.5292 170° South 316 364 35,000  Level Indianapolis Center
23:43 38.5947 -87.5114 171° South 314 361 35,000  Level Indianapolis Center
23:44 38.5089 -87.4942 171° South 312 359 35,000  Level Indianapolis Center
23:45 38.4233 -87.4756 170° South 312 359 35,000 -341 Level Indianapolis Center
23:46 38.3378 -87.4589 171° South 312 359 34,300 -836 Descending Indianapolis Center
23:47 38.2531 -87.4400 170° South 312 359 33,300 -984 Descending Indianapolis Center
23:48 38.1672 -87.4219 171° South 313 360 32,300 -1,082 Descending Indianapolis Center
23:49 38.0611 -87.4011 171° South 321 369 31,100 -1,415 Descending Indianapolis Center
23:50 37.9711 -87.3814 170° South 326 375 29,400 -1,024 Descending Indianapolis Center
23:51 37.8767 -87.3617 171° South 340 391 29,000 -197 Descending Indianapolis Center
23:52 37.7844 -87.3431 171° South 337 388 29,000 -738 Level Indianapolis Center
23:53 37.6950 -87.3267 172° South 336 387 27,500 -1,694 Descending Indianapolis Center
23:54 37.5922 -87.3081 172° South 352 405 25,500 -2,000 Descending Memphis Center
23:55 37.5022 -87.2881 170° South 346 398 23,400 -1,900 Descending Memphis Center
23:56 37.4206 -87.2678 169° South 320 368 21,700 -1,600 Descending Memphis Center
23:57 37.3283 -87.2478 170° South 320 368 20,200 -1,500 Descending Memphis Center
23:58 37.2256 -87.2181 167° South 358 412 18,700 -1,600 Descending Memphis Center
23:59 37.1228 -87.1883 167° South 379 436 17,000 -1,650 Descending Memphis Center
00:00 37.0239 -87.1611 168° South 371 427 15,400 -1,500 Descending Memphis Center
00:01 36.9233 -87.1314 167° South 359 413 14,000 -1,200 Descending Memphis Center
00:02 36.8328 -87.1039 166° South 335 386 13,000 -1,000 Descending Memphis Center
00:03 36.7503 -87.0553 155° Southeast 335 386 12,000 -1,000 Descending Memphis Center
00:04 36.6656 -87.0044 154° Southeast 329 379 11,000 -500 Descending Memphis Center
00:05 36.5872 -86.9561 154° Southeast 329 379 11,000 -50 Level Memphis Center
00:06 36.5067 -86.9078 154° Southeast 323 372 10,900 -850 Descending Memphis Center
00:07 36.4389 -86.8669 154° Southeast 287 330 9,300 -1,550 Descending Memphis Center
00:08 36.3814 -86.8306 153° Southeast 269 310 7,800 -1,550 Descending Memphis Center
00:09 36.3136 -86.7897 154° Southeast 262 302 6,200 -900 Descending Memphis Center
00:10 36.2614 -86.7122 130° Southeast 262 302 6,000 -400 Descending Memphis Center
00:11 36.2114 -86.6450 133° Southeast 267 307 5,400 -650 Descending Memphis Center
00:12 36.1572 -86.5756 134° Southeast 273 314 4,700 -1,100 Descending Memphis Center
00:13 36.1072 -86.5086 133° Southeast 273 314 3,200 -850 Descending Memphis Center
00:14 36.0572 -86.4467 135° Southeast 264 304 3,000 -150 Descending Memphis Center
00:15 36.0092 -86.4414 175° South 213 245 2,900 -200 Descending Memphis Center
00:16 36.0131 -86.4975 275° West 96 110 2,600 -150 Descending Memphis Center
00:17 36.0250 -86.5458 287° West 138 159 2,600 -268 Level Memphis Center
00:19 36.0833 -86.6167 316° Northwest 140 161 1,800 -486 Descending Nashville TRACON
00:20 36.1000 -86.6500 302° West 117 135 1,200 -667 Descending Nashville TRACON
00:22 36.1167 -86.6667 277° West  Level FlightAware Approximate
00:29 36.1245 -86.6782 277° West  Level Estimated
00:30 36.1245 -86.6782 277° West  Level Estimated
00:31 36.1245 -86.6782 277° West  Level Estimated
00:32 36.1245 -86.6782 277° West  Level Estimated

Login

Don't have an account? Register now (free) for customized features, flight alerts, and more!